Time,TemperatureF,DewpointF,PressureIn,WindDirection,WindDirectionDegrees,WindSpeedMPH,WindSpeedGustMPH,Humidity,HourlyPrecipIn,Conditions,Clouds,dailyrainin,SoftwareType,DateUTC
2013-03-22 00:03:00,21.2,13.6,30.37,North,0,0.0,0.0,72,0.00,,,0.00,WUHU216HW,2013-03-22 05:03:00,
2013-03-22 00:08:00,21.2,13.6,30.37,North,0,0.0,0.0,72,0.00,,,0.00,WUHU216HW,2013-03-22 05:08:00,
2013-03-22 00:13:00,21.2,13.6,30.37,North,0,0.0,0.0,72,0.00,,,0.00,WUHU216HW,2013-03-22 05:13:00,
2013-03-22 00:18:00,21.2,13.6,30.38,North,0,0.0,0.0,72,0.00,,,0.00,WUHU216HW,2013-03-22 05:18:00,
2013-03-22 00:23:00,21.2,13.6,30.38,North,0,0.0,0.0,72,0.00,,,0.00,WUHU216HW,2013-03-22 05:23:00,
2013-03-22 00:28:00,21.2,13.6,30.37,North,0,0.0,0.0,72,0.00,,,0.00,WUHU216HW,2013-03-22 05:28:00,
2013-03-22 00:33:00,21.2,13.6,30.37,North,0,0.0,0.0,72,0.00,,,0.00,WUHU216HW,2013-03-22 05:33:00,
2013-03-22 00:38:00,21.2,13.6,30.38,North,0,0.0,0.0,72,0.00,,,0.00,WUHU216HW,2013-03-22 05:38:00,
2013-03-22 00:43:00,21.1,13.4,30.38,North,0,0.0,0.0,72,0.00,,,0.00,WUHU216HW,2013-03-22 05:43:00,
2013-03-22 00:48:00,21.1,13.4,30.38,North,0,0.0,0.0,72,0.00,,,0.00,WUHU216HW,2013-03-22 05:48:00,
2013-03-22 00:53:00,21.1,13.4,30.37,North,0,0.0,0.0,72,0.00,,,0.00,WUHU216HW,2013-03-22 05:53:00,
2013-03-22 00:58:00,20.9,13.2,30.37,North,0,0.0,0.0,72,0.00,,,0.00,WUHU216HW,2013-03-22 05:58:00,
2013-03-22 01:03:00,20.9,13.2,30.37,North,0,0.0,0.0,72,0.00,,,0.00,WUHU216HW,2013-03-22 06:03:00,
2013-03-22 01:08:00,20.7,13.1,30.37,North,0,0.0,0.0,72,0.00,,,0.00,WUHU216HW,2013-03-22 06:08:00,
2013-03-22 01:13:00,20.5,12.9,30.38,North,0,0.0,0.0,72,0.00,,,0.00,WUHU216HW,2013-03-22 06:13:00,
2013-03-22 01:18:00,20.5,13.1,30.38,North,0,0.0,0.0,73,0.00,,,0.00,WUHU216HW,2013-03-22 06:18:00,
2013-03-22 01:23:00,20.5,13.1,30.38,North,0,0.0,0.0,73,0.00,,,0.00,WUHU216HW,2013-03-22 06:23:00,
2013-03-22 01:28:00,20.5,13.1,30.38,North,0,0.0,0.0,73,0.00,,,0.00,WUHU216HW,2013-03-22 06:28:00,
2013-03-22 01:33:00,20.3,13.3,30.38,North,0,0.0,0.0,74,0.00,,,0.00,WUHU216HW,2013-03-22 06:33:00,
2013-03-22 01:38:00,20.3,13.3,30.38,North,0,0.0,0.0,74,0.00,,,0.00,WUHU216HW,2013-03-22 06:38:00,
2013-03-22 01:43:00,20.3,13.6,30.38,North,0,0.0,0.0,75,0.00,,,0.00,WUHU216HW,2013-03-22 06:43:00,
2013-03-22 01:48:00,20.5,13.8,30.38,North,0,0.0,0.0,75,0.00,,,0.00,WUHU216HW,2013-03-22 06:48:00,
2013-03-22 01:53:00,20.5,13.5,30.38,North,0,0.0,0.0,74,0.00,,,0.00,WUHU216HW,2013-03-22 06:53:00,
2013-03-22 01:58:00,20.3,13.3,30.38,North,0,0.0,0.0,74,0.00,,,0.00,WUHU216HW,2013-03-22 06:58:00,
2013-03-22 02:03:00,20.5,13.5,30.38,North,0,0.0,0.0,74,0.00,,,0.00,WUHU216HW,2013-03-22 07:03:00,
2013-03-22 02:08:00,20.9,13.9,30.38,North,0,0.0,0.0,74,0.00,,,0.00,WUHU216HW,2013-03-22 07:08:00,
2013-03-22 02:13:00,21.2,14.5,30.38,North,0,0.0,0.0,75,0.00,,,0.00,WUHU216HW,2013-03-22 07:13:00,
2013-03-22 02:18:00,21.1,14.1,30.38,North,0,0.0,0.0,74,0.00,,,0.00,WUHU216HW,2013-03-22 07:18:00,
2013-03-22 02:23:00,20.9,13.9,30.38,North,0,0.0,0.0,74,0.00,,,0.00,WUHU216HW,2013-03-22 07:23:00,
2013-03-22 02:28:00,20.9,14.1,30.38,North,0,0.0,0.0,75,0.00,,,0.00,WUHU216HW,2013-03-22 07:28:00,
2013-03-22 02:33:00,21.1,14.1,30.38,North,0,0.0,0.0,74,0.00,,,0.00,WUHU216HW,2013-03-22 07:33:00,
2013-03-22 02:38:00,21.1,14.3,30.39,North,0,0.0,0.0,75,0.00,,,0.00,WUHU216HW,2013-03-22 07:38:00,
2013-03-22 02:43:00,20.7,13.7,30.39,North,0,0.0,0.0,74,0.00,,,0.00,WUHU216HW,2013-03-22 07:43:00,
2013-03-22 02:48:00,20.5,13.5,30.39,North,0,0.0,0.0,74,0.00,,,0.00,WUHU216HW,2013-03-22 07:48:00,
2013-03-22 02:53:00,20.2,13.4,30.39,North,0,0.0,0.0,75,0.00,,,0.00,WUHU216HW,2013-03-22 07:53:00,
2013-03-22 02:58:00,20.0,13.0,30.39,North,0,0.0,0.0,74,0.00,,,0.00,WUHU216HW,2013-03-22 07:58:00,
2013-03-22 03:03:00,19.8,13.1,30.39,North,0,0.0,0.0,75,0.00,,,0.00,WUHU216HW,2013-03-22 08:03:00,
2013-03-22 03:08:00,20.0,13.5,30.38,North,0,0.0,0.0,76,0.00,,,0.00,WUHU216HW,2013-03-22 08:08:00,
2013-03-22 03:13:00,20.0,13.5,30.38,North,0,0.0,0.0,76,0.00,,,0.00,WUHU216HW,2013-03-22 08:13:00,
2013-03-22 03:18:00,19.8,13.3,30.38,North,0,0.0,0.0,76,0.00,,,0.00,WUHU216HW,2013-03-22 08:18:00,
2013-03-22 03:23:00,19.4,13.0,30.39,North,0,0.0,0.0,76,0.00,,,0.00,WUHU216HW,2013-03-22 08:23:00,
2013-03-22 03:28:00,19.3,12.8,30.39,North,0,0.0,0.0,76,0.00,,,0.00,WUHU216HW,2013-03-22 08:28:00,
2013-03-22 03:33:00,19.1,12.7,30.39,North,0,0.0,0.0,76,0.00,,,0.00,WUHU216HW,2013-03-22 08:33:00,
2013-03-22 03:38:00,18.9,12.8,30.38,North,0,0.0,0.0,77,0.00,,,0.00,WUHU216HW,2013-03-22 08:38:00,
2013-03-22 03:43:00,18.7,12.6,30.38,North,0,0.0,0.0,77,0.00,,,0.00,WUHU216HW,2013-03-22 08:43:00,
2013-03-22 03:48:00,18.9,13.1,30.38,North,0,0.0,0.0,78,0.00,,,0.00,WUHU216HW,2013-03-22 08:48:00,
2013-03-22 03:53:00,18.9,13.1,30.38,North,0,0.0,0.0,78,0.00,,,0.00,WUHU216HW,2013-03-22 08:53:00,
2013-03-22 03:58:00,18.7,12.9,30.38,North,0,0.0,0.0,78,0.00,,,0.00,WUHU216HW,2013-03-22 08:58:00,
2013-03-22 04:03:00,18.7,12.9,30.38,North,0,0.0,0.0,78,0.00,,,0.00,WUHU216HW,2013-03-22 09:03:00,
2013-03-22 04:08:00,18.5,12.7,30.38,North,0,0.0,0.0,78,0.00,,,0.00,WUHU216HW,2013-03-22 09:08:00,
2013-03-22 04:13:00,18.4,12.5,30.38,North,0,0.0,0.0,78,0.00,,,0.00,WUHU216HW,2013-03-22 09:13:00,
2013-03-22 04:18:00,18.4,12.5,30.38,North,0,0.0,0.0,78,0.00,,,0.00,WUHU216HW,2013-03-22 09:18:00,
2013-03-22 04:23:00,18.2,12.3,30.38,North,0,0.0,0.0,78,0.00,,,0.00,WUHU216HW,2013-03-22 09:23:00,
2013-03-22 04:28:00,18.2,12.3,30.38,North,0,0.0,0.0,78,0.00,,,0.00,WUHU216HW,2013-03-22 09:28:00,
2013-03-22 04:33:00,18.2,12.7,30.38,North,0,0.0,0.0,79,0.00,,,0.00,WUHU216HW,2013-03-22 09:33:00,
2013-03-22 04:38:00,18.2,12.7,30.38,North,0,0.0,0.0,79,0.00,,,0.00,WUHU216HW,2013-03-22 09:38:00,
2013-03-22 04:43:00,18.2,12.7,30.38,North,0,0.0,0.0,79,0.00,,,0.00,WUHU216HW,2013-03-22 09:43:00,
2013-03-22 04:48:00,18.0,12.5,30.38,North,0,0.0,0.0,79,0.00,,,0.00,WUHU216HW,2013-03-22 09:48:00,
2013-03-22 04:53:00,17.8,12.3,30.38,North,0,0.0,0.0,79,0.00,,,0.00,WUHU216HW,2013-03-22 09:53:00,
2013-03-22 04:58:00,17.8,12.3,30.38,North,0,0.0,0.0,79,0.00,,,0.00,WUHU216HW,2013-03-22 09:58:00,
2013-03-22 05:03:00,17.6,12.4,30.38,North,0,0.0,0.0,80,0.00,,,0.00,WUHU216HW,2013-03-22 10:03:00,
2013-03-22 05:08:00,17.6,12.4,30.37,North,0,0.0,0.0,80,0.00,,,0.00,WUHU216HW,2013-03-22 10:08:00,
2013-03-22 05:13:00,17.6,12.4,30.37,North,0,0.0,0.0,80,0.00,,,0.00,WUHU216HW,2013-03-22 10:13:00,
2013-03-22 05:18:00,17.6,12.2,30.37,North,0,0.0,0.0,79,0.00,,,0.00,WUHU216HW,2013-03-22 10:18:00,
2013-03-22 05:23:00,17.6,12.2,30.37,North,0,0.0,0.0,79,0.00,,,0.00,WUHU216HW,2013-03-22 10:23:00,
2013-03-22 05:28:00,17.6,12.2,30.37,North,0,0.0,0.0,79,0.00,,,0.00,WUHU216HW,2013-03-22 10:28:00,
2013-03-22 05:33:00,17.5,12.0,30.37,North,0,0.0,0.0,79,0.00,,,0.00,WUHU216HW,2013-03-22 10:33:00,
2013-03-22 05:38:00,17.5,12.2,30.37,North,0,0.0,0.0,80,0.00,,,0.00,WUHU216HW,2013-03-22 10:38:00,
2013-03-22 05:43:00,17.5,12.5,30.37,North,0,0.0,0.0,81,0.00,,,0.00,WUHU216HW,2013-03-22 10:43:00,
2013-03-22 05:48:00,17.6,12.7,30.37,North,0,0.0,0.0,81,0.00,,,0.00,WUHU216HW,2013-03-22 10:48:00,
2013-03-22 05:53:00,17.6,12.7,30.37,North,0,0.0,0.0,81,0.00,,,0.00,WUHU216HW,2013-03-22 10:53:00,
2013-03-22 05:58:00,17.8,12.9,30.37,North,0,0.0,0.0,81,0.00,,,0.00,WUHU216HW,2013-03-22 10:58:00,
2013-03-22 06:03:00,17.8,12.9,30.37,North,0,0.0,0.0,81,0.00,,,0.00,WUHU216HW,2013-03-22 11:03:00,
2013-03-22 06:08:00,18.0,13.1,30.37,North,0,0.0,0.0,81,0.00,,,0.00,WUHU216HW,2013-03-22 11:08:00,
2013-03-22 06:13:00,18.0,13.1,30.37,North,0,0.0,0.0,81,0.00,,,0.00,WUHU216HW,2013-03-22 11:13:00,
2013-03-22 06:18:00,18.2,13.2,30.37,North,0,0.0,0.0,81,0.00,,,0.00,WUHU216HW,2013-03-22 11:18:00,
2013-03-22 06:23:00,18.2,13.0,30.37,North,0,0.0,0.0,80,0.00,,,0.00,WUHU216HW,2013-03-22 11:23:00,
2013-03-22 06:28:00,18.2,13.0,30.37,North,0,0.0,0.0,80,0.00,,,0.00,WUHU216HW,2013-03-22 11:28:00,
2013-03-22 06:33:00,18.2,13.0,30.38,North,0,0.0,0.0,80,0.00,,,0.00,WUHU216HW,2013-03-22 11:33:00,
2013-03-22 06:38:00,18.0,12.8,30.38,North,0,0.0,0.0,80,0.00,,,0.00,WUHU216HW,2013-03-22 11:38:00,
2013-03-22 06:44:00,17.8,12.6,30.38,North,0,0.0,0.0,80,0.00,,,0.00,WUHU216HW,2013-03-22 11:44:00,
2013-03-22 06:49:00,17.6,12.4,30.38,North,0,0.0,0.0,80,0.00,,,0.00,WUHU216HW,2013-03-22 11:49:00,
2013-03-22 06:54:00,17.6,12.4,30.38,North,0,0.0,0.0,80,0.00,,,0.00,WUHU216HW,2013-03-22 11:54:00,
2013-03-22 06:59:00,17.6,12.4,30.38,North,0,0.0,0.0,80,0.00,,,0.00,WUHU216HW,2013-03-22 11:59:00,
2013-03-22 07:04:00,17.5,12.2,30.38,North,0,0.0,0.0,80,0.00,,,0.00,WUHU216HW,2013-03-22 12:04:00,
2013-03-22 07:09:00,17.6,12.4,30.38,North,0,0.0,0.0,80,0.00,,,0.00,WUHU216HW,2013-03-22 12:09:00,
2013-03-22 07:14:00,18.0,13.1,30.38,North,0,0.0,0.0,81,0.00,,,0.00,WUHU216HW,2013-03-22 12:14:00,
2013-03-22 07:19:00,18.7,14.0,30.38,North,0,0.0,0.0,82,0.00,,,0.00,WUHU216HW,2013-03-22 12:19:00,
2013-03-22 07:24:00,20.0,15.3,30.39,North,0,0.0,0.0,82,0.00,,,0.00,WUHU216HW,2013-03-22 12:24:00,
2013-03-22 07:29:00,21.8,17.1,30.39,North,0,0.0,0.0,82,0.00,,,0.00,WUHU216HW,2013-03-22 12:29:00,
2013-03-22 07:34:00,23.4,18.2,30.39,North,0,0.0,0.0,80,0.00,,,0.00,WUHU216HW,2013-03-22 12:34:00,
2013-03-22 07:39:00,25.2,19.6,30.39,North,0,0.0,0.0,79,0.00,,,0.00,WUHU216HW,2013-03-22 12:39:00,
2013-03-22 07:44:00,26.5,20.2,30.39,North,0,0.0,0.0,77,0.00,,,0.00,WUHU216HW,2013-03-22 12:44:00,
2013-03-22 07:49:00,27.7,20.8,30.39,North,0,0.0,0.0,75,0.00,,,0.00,WUHU216HW,2013-03-22 12:49:00,
2013-03-22 07:54:00,29.3,22.1,30.39,North,0,0.0,0.0,74,0.00,,,0.00,WUHU216HW,2013-03-22 12:54:00,
2013-03-22 07:59:00,31.7,24.0,30.39,North,0,0.0,0.0,73,0.00,,,0.00,WUHU216HW,2013-03-22 12:59:00,
2013-03-22 08:04:00,34.0,24.5,30.39,North,0,0.0,0.0,68,0.00,,,0.00,WUHU216HW,2013-03-22 13:04:00,
2013-03-22 08:09:00,35.1,25.2,30.39,North,0,0.0,0.0,67,0.00,,,0.00,WUHU216HW,2013-03-22 13:09:00,
2013-03-22 08:14:00,36.0,24.0,30.39,North,0,0.0,0.0,61,0.00,,,0.00,WUHU216HW,2013-03-22 13:14:00,
2013-03-22 08:19:00,36.4,24.9,30.39,North,0,0.0,0.0,63,0.00,,,0.00,WUHU216HW,2013-03-22 13:19:00,
2013-03-22 08:24:00,36.7,25.3,30.39,North,0,0.0,0.0,63,0.00,,,0.00,WUHU216HW,2013-03-22 13:24:00,
2013-03-22 08:29:00,35.8,24.1,30.39,North,0,0.0,0.0,62,0.01,,,0.00,WUHU216HW,2013-03-22 13:29:00,
2013-03-22 08:34:00,33.8,21.4,30.39,North,0,0.0,0.0,60,0.01,,,0.01,WUHU216HW,2013-03-22 13:34:00,
2013-03-22 08:39:00,33.1,21.9,30.39,North,0,0.0,0.0,63,0.01,,,0.01,WUHU216HW,2013-03-22 13:39:00,
2013-03-22 08:44:00,32.0,21.2,30.38,North,0,0.0,0.0,64,0.01,,,0.01,WUHU216HW,2013-03-22 13:44:00,
2013-03-22 08:49:00,31.7,20.9,30.38,North,0,0.0,0.0,64,0.01,,,0.01,WUHU216HW,2013-03-22 13:49:00,
2013-03-22 08:54:00,31.5,21.1,30.38,North,0,0.0,0.0,65,0.01,,,0.01,WUHU216HW,2013-03-22 13:54:00,
2013-03-22 08:59:00,31.7,20.9,30.38,North,0,0.0,0.0,64,0.01,,,0.01,WUHU216HW,2013-03-22 13:59:00,
2013-03-22 09:04:00,31.7,21.2,30.39,North,0,0.0,0.0,65,0.01,,,0.01,WUHU216HW,2013-03-22 14:04:00,
2013-03-22 09:09:00,31.3,19.8,30.38,North,0,0.0,0.0,62,0.01,,,0.01,WUHU216HW,2013-03-22 14:09:00,
2013-03-22 09:14:00,31.9,21.4,30.39,North,0,0.0,0.0,65,0.01,,,0.01,WUHU216HW,2013-03-22 14:14:00,
2013-03-22 09:19:00,32.0,21.6,30.39,North,0,0.0,0.0,65,0.01,,,0.01,WUHU216HW,2013-03-22 14:19:00,
2013-03-22 09:24:00,32.6,22.1,30.39,North,0,0.0,0.0,65,0.00,,,0.01,WUHU216HW,2013-03-22 14:24:00,
2013-03-22 09:29:00,32.6,21.7,30.39,North,0,0.0,0.0,64,0.00,,,0.01,WUHU216HW,2013-03-22 14:29:00,
2013-03-22 09:34:00,32.8,22.2,30.39,North,0,0.0,0.0,65,0.00,,,0.01,WUHU216HW,2013-03-22 14:34:00,
2013-03-22 09:39:00,33.1,22.6,30.39,North,0,0.0,0.0,65,0.00,,,0.01,WUHU216HW,2013-03-22 14:39:00,
2013-03-22 09:44:00,32.8,21.9,30.39,North,0,0.0,0.0,64,0.00,,,0.01,WUHU216HW,2013-03-22 14:44:00,
2013-03-22 09:49:00,32.6,21.7,30.39,North,0,0.0,0.0,64,0.00,,,0.01,WUHU216HW,2013-03-22 14:49:00,
2013-03-22 09:54:00,32.4,22.0,30.39,North,0,0.0,0.0,65,0.00,,,0.01,WUHU216HW,2013-03-22 14:54:00,
2013-03-22 09:59:00,32.8,22.2,30.39,North,0,0.0,0.0,65,0.00,,,0.01,WUHU216HW,2013-03-22 14:59:00,
2013-03-22 10:04:00,33.1,21.5,30.39,North,0,0.0,0.0,62,0.00,,,0.01,WUHU216HW,2013-03-22 15:04:00,
2013-03-22 10:09:00,33.8,21.0,30.39,North,0,0.0,0.0,59,0.00,,,0.01,WUHU216HW,2013-03-22 15:09:00,
2013-03-22 10:14:00,33.8,20.2,30.39,North,0,0.0,0.0,57,0.00,,,0.01,WUHU216HW,2013-03-22 15:14:00,
2013-03-22 10:19:00,34.2,22.1,30.39,North,0,0.0,0.0,61,0.00,,,0.01,WUHU216HW,2013-03-22 15:19:00,
2013-03-22 10:24:00,34.6,22.5,30.39,North,0,0.0,0.0,61,0.00,,,0.01,WUHU216HW,2013-03-22 15:24:00,
2013-03-22 10:29:00,34.9,22.5,30.39,North,0,0.0,0.0,60,0.00,,,0.01,WUHU216HW,2013-03-22 15:29:00,
2013-03-22 10:34:00,35.1,22.7,30.39,North,0,0.0,0.0,60,0.00,,,0.01,WUHU216HW,2013-03-22 15:34:00,
2013-03-22 10:39:00,35.3,22.9,30.39,North,0,0.0,0.0,60,0.00,,,0.01,WUHU216HW,2013-03-22 15:39:00,
2013-03-22 10:44:00,35.5,23.0,30.39,North,0,0.0,0.0,60,0.00,,,0.01,WUHU216HW,2013-03-22 15:44:00,
2013-03-22 10:49:00,35.3,22.4,30.38,North,0,0.0,0.0,59,0.00,,,0.01,WUHU216HW,2013-03-22 15:49:00,
2013-03-22 10:54:00,35.6,23.2,30.39,North,0,0.0,0.0,60,0.00,,,0.01,WUHU216HW,2013-03-22 15:54:00,
2013-03-22 10:59:00,36.2,22.0,30.39,North,0,0.0,0.0,56,0.00,,,0.01,WUHU216HW,2013-03-22 15:59:00,
2013-03-22 11:04:00,36.2,22.9,30.39,North,0,0.0,0.0,58,0.00,,,0.01,WUHU216HW,2013-03-22 16:04:00,
2013-03-22 11:09:00,36.2,23.3,30.39,North,0,0.0,0.0,59,0.00,,,0.01,WUHU216HW,2013-03-22 16:09:00,
2013-03-22 11:14:00,36.2,22.9,30.39,North,0,0.0,0.0,58,0.00,,,0.01,WUHU216HW,2013-03-22 16:14:00,
2013-03-22 11:19:00,36.4,23.4,30.38,North,0,0.0,0.0,59,0.00,,,0.01,WUHU216HW,2013-03-22 16:19:00,
2013-03-22 11:24:00,36.2,20.7,30.38,North,0,0.0,0.0,53,0.00,,,0.01,WUHU216HW,2013-03-22 16:24:00,
2013-03-22 11:29:00,36.0,20.1,30.38,North,0,0.0,0.0,52,0.00,,,0.01,WUHU216HW,2013-03-22 16:29:00,
2013-03-22 11:34:00,36.0,21.8,30.39,North,0,0.0,0.0,56,0.00,,,0.01,WUHU216HW,2013-03-22 16:34:00,
2013-03-22 11:39:00,36.5,22.3,30.39,North,0,0.0,0.0,56,0.00,,,0.01,WUHU216HW,2013-03-22 16:39:00,
2013-03-22 11:44:00,36.9,22.6,30.38,North,0,0.0,0.0,56,0.00,,,0.01,WUHU216HW,2013-03-22 16:44:00,
2013-03-22 11:49:00,37.1,22.3,30.38,North,0,0.0,0.0,55,0.00,,,0.01,WUHU216HW,2013-03-22 16:49:00,
2013-03-22 11:54:00,36.7,22.5,30.38,North,0,0.0,0.0,56,0.00,,,0.01,WUHU216HW,2013-03-22 16:54:00,
2013-03-22 11:59:00,36.4,21.7,30.38,North,0,0.0,0.0,55,0.00,,,0.01,WUHU216HW,2013-03-22 16:59:00,
2013-03-22 12:04:00,36.7,21.6,30.38,North,0,0.0,0.0,54,0.00,,,0.01,WUHU216HW,2013-03-22 17:04:00,
2013-03-22 12:09:00,37.1,22.0,30.38,North,0,0.0,0.0,54,0.00,,,0.01,WUHU216HW,2013-03-22 17:09:00,
2013-03-22 12:14:00,37.1,21.1,30.38,North,0,0.0,0.0,52,0.00,,,0.01,WUHU216HW,2013-03-22 17:14:00,
2013-03-22 12:19:00,37.3,22.5,30.37,North,0,0.0,0.0,55,0.00,,,0.01,WUHU216HW,2013-03-22 17:19:00,
2013-03-22 12:24:00,37.4,22.7,30.37,North,0,0.0,0.0,55,0.00,,,0.01,WUHU216HW,2013-03-22 17:24:00,
2013-03-22 12:29:00,37.6,22.4,30.37,North,0,0.0,0.0,54,0.00,,,0.01,WUHU216HW,2013-03-22 17:29:00,
2013-03-22 12:34:00,37.8,22.6,30.37,North,0,0.0,0.0,54,0.00,,,0.01,WUHU216HW,2013-03-22 17:34:00,
2013-03-22 12:39:00,37.8,21.7,30.37,North,0,0.0,0.0,52,0.00,,,0.01,WUHU216HW,2013-03-22 17:39:00,
2013-03-22 12:44:00,37.8,23.1,30.36,North,0,0.0,0.0,55,0.00,,,0.01,WUHU216HW,2013-03-22 17:44:00,
2013-03-22 12:49:00,37.6,22.9,30.36,North,0,0.0,0.0,55,0.00,,,0.01,WUHU216HW,2013-03-22 17:49:00,
2013-03-22 12:54:00,37.1,22.8,30.36,North,0,0.0,0.0,56,0.00,,,0.01,WUHU216HW,2013-03-22 17:54:00,
2013-03-22 12:59:00,36.4,22.6,30.36,North,0,0.0,0.0,57,0.00,,,0.01,WUHU216HW,2013-03-22 17:59:00,
2013-03-22 13:04:00,36.5,22.8,30.35,North,0,0.0,0.0,57,0.00,,,0.01,WUHU216HW,2013-03-22 18:04:00,
2013-03-22 13:09:00,37.1,23.2,30.35,North,0,0.0,0.0,57,0.00,,,0.01,WUHU216HW,2013-03-22 18:09:00,
2013-03-22 13:14:00,37.4,22.7,30.35,North,0,0.0,0.0,55,0.00,,,0.01,WUHU216HW,2013-03-22 18:14:00,
2013-03-22 13:19:00,37.8,23.4,30.35,North,0,0.0,0.0,56,0.00,,,0.01,WUHU216HW,2013-03-22 18:19:00,
2013-03-22 13:24:00,37.6,22.4,30.35,North,0,0.0,0.0,54,0.00,,,0.01,WUHU216HW,2013-03-22 18:24:00,
2013-03-22 13:29:00,38.0,23.6,30.35,North,0,0.0,0.0,56,0.00,,,0.01,WUHU216HW,2013-03-22 18:29:00,
2013-03-22 13:34:00,38.2,21.6,30.35,North,0,0.0,0.0,51,0.00,,,0.01,WUHU216HW,2013-03-22 18:34:00,
2013-03-22 13:39:00,38.3,22.6,30.35,North,0,0.0,0.0,53,0.00,,,0.01,WUHU216HW,2013-03-22 18:39:00,
2013-03-22 13:44:00,38.5,23.2,30.35,North,0,0.0,0.0,54,0.00,,,0.01,WUHU216HW,2013-03-22 18:44:00,
2013-03-22 13:49:00,38.5,23.2,30.35,North,0,0.0,0.0,54,0.00,,,0.01,WUHU216HW,2013-03-22 18:49:00,
2013-03-22 13:54:00,38.5,22.8,30.35,North,0,0.0,0.0,53,0.00,,,0.01,WUHU216HW,2013-03-22 18:54:00,
2013-03-22 13:59:00,38.5,23.7,30.35,North,0,0.0,0.0,55,0.00,,,0.01,WUHU216HW,2013-03-22 18:59:00,
2013-03-22 14:04:00,38.7,22.1,30.34,North,0,0.0,0.0,51,0.00,,,0.01,WUHU216HW,2013-03-22 19:04:00,
2013-03-22 14:09:00,38.9,23.1,30.34,North,0,0.0,0.0,53,0.00,,,0.01,WUHU216HW,2013-03-22 19:09:00,
2013-03-22 14:14:00,38.7,22.1,30.34,North,0,0.0,0.0,51,0.00,,,0.01,WUHU216HW,2013-03-22 19:14:00,
2013-03-22 14:19:00,38.5,21.5,30.34,North,0,0.0,0.0,50,0.00,,,0.01,WUHU216HW,2013-03-22 19:19:00,
2013-03-22 14:24:00,38.5,22.8,30.33,North,0,0.0,0.0,53,0.00,,,0.01,WUHU216HW,2013-03-22 19:24:00,
2013-03-22 14:29:00,38.7,23.0,30.33,North,0,0.0,0.0,53,0.00,,,0.01,WUHU216HW,2013-03-22 19:29:00,
2013-03-22 14:34:00,38.7,23.0,30.33,North,0,0.0,0.0,53,0.00,,,0.01,WUHU216HW,2013-03-22 19:34:00,
2013-03-22 14:39:00,38.9,22.7,30.33,North,0,0.0,0.0,52,0.00,,,0.01,WUHU216HW,2013-03-22 19:39:00,
2013-03-22 14:44:00,38.7,22.1,30.33,North,0,0.0,0.0,51,0.00,,,0.01,WUHU216HW,2013-03-22 19:44:00,
2013-03-22 14:49:00,38.5,21.5,30.33,North,0,0.0,0.0,50,0.00,,,0.01,WUHU216HW,2013-03-22 19:49:00,
2013-03-22 14:54:00,38.5,22.3,30.33,North,0,0.0,0.0,52,0.01,,,0.02,WUHU216HW,2013-03-22 19:54:00,
2013-03-22 14:59:00,38.7,23.0,30.33,North,0,0.0,0.0,53,0.01,,,0.02,WUHU216HW,2013-03-22 19:59:00,
2013-03-22 15:04:00,38.5,22.8,30.33,North,0,0.0,0.0,53,0.01,,,0.02,WUHU216HW,2013-03-22 20:04:00,
2013-03-22 15:09:00,38.3,23.0,30.33,North,0,0.0,0.0,54,0.01,,,0.02,WUHU216HW,2013-03-22 20:09:00,
2013-03-22 15:14:00,38.5,23.2,30.33,North,0,0.0,0.0,54,0.01,,,0.02,WUHU216HW,2013-03-22 20:14:00,
2013-03-22 15:19:00,38.5,22.8,30.33,North,0,0.0,0.0,53,0.01,,,0.02,WUHU216HW,2013-03-22 20:19:00,
2013-03-22 15:24:00,38.3,23.0,30.33,North,0,0.0,0.0,54,0.01,,,0.02,WUHU216HW,2013-03-22 20:24:00,
2013-03-22 15:29:00,38.2,21.6,30.33,North,0,0.0,0.0,51,0.01,,,0.02,WUHU216HW,2013-03-22 20:29:00,
2013-03-22 15:34:00,38.3,22.6,30.33,North,0,0.0,0.0,53,0.01,,,0.02,WUHU216HW,2013-03-22 20:34:00,
2013-03-22 15:39:00,38.7,22.1,30.33,North,0,0.0,0.0,51,0.01,,,0.02,WUHU216HW,2013-03-22 20:39:00,
2013-03-22 15:44:00,38.7,22.1,30.33,North,0,0.0,0.0,51,0.01,,,0.02,WUHU216HW,2013-03-22 20:44:00,
2013-03-22 15:49:00,38.9,23.1,30.33,North,0,0.0,0.0,53,0.00,,,0.02,WUHU216HW,2013-03-22 20:49:00,
2013-03-22 15:54:00,38.9,23.1,30.33,North,0,0.0,0.0,53,0.00,,,0.02,WUHU216HW,2013-03-22 20:54:00,
2013-03-22 15:59:00,39.1,22.9,30.33,North,0,0.0,0.0,52,0.00,,,0.02,WUHU216HW,2013-03-22 20:59:00,
2013-03-22 16:04:00,39.1,22.9,30.33,North,0,0.0,0.0,52,0.00,,,0.02,WUHU216HW,2013-03-22 21:04:00,
2013-03-22 16:09:00,39.2,23.4,30.33,North,0,0.0,0.0,53,0.00,,,0.02,WUHU216HW,2013-03-22 21:09:00,
2013-03-22 16:14:00,39.2,22.6,30.33,North,0,0.0,0.0,51,0.00,,,0.02,WUHU216HW,2013-03-22 21:14:00,
2013-03-22 16:19:00,39.2,22.6,30.33,North,0,0.0,0.0,51,0.00,,,0.02,WUHU216HW,2013-03-22 21:19:00,
2013-03-22 16:24:00,39.1,21.4,30.33,North,0,0.0,0.0,49,0.00,,,0.02,WUHU216HW,2013-03-22 21:24:00,
2013-03-22 16:29:00,38.9,21.3,30.33,North,0,0.0,0.0,49,0.00,,,0.02,WUHU216HW,2013-03-22 21:29:00,
2013-03-22 16:34:00,38.9,20.3,30.33,North,0,0.0,0.0,47,0.00,,,0.02,WUHU216HW,2013-03-22 21:34:00,
2013-03-22 16:39:00,38.9,22.2,30.33,North,0,0.0,0.0,51,0.00,,,0.02,WUHU216HW,2013-03-22 21:39:00,
2013-03-22 16:44:00,38.7,22.1,30.33,North,0,0.0,0.0,51,0.00,,,0.02,WUHU216HW,2013-03-22 21:44:00,
2013-03-22 16:49:00,38.7,22.1,30.33,North,0,0.0,0.0,51,0.00,,,0.02,WUHU216HW,2013-03-22 21:49:00,
2013-03-22 16:54:00,38.7,22.1,30.33,North,0,0.0,0.0,51,0.00,,,0.02,WUHU216HW,2013-03-22 21:54:00,
2013-03-22 16:59:00,38.7,22.5,30.33,North,0,0.0,0.0,52,0.00,,,0.02,WUHU216HW,2013-03-22 21:59:00,
2013-03-22 17:04:00,39.1,21.4,30.33,North,0,0.0,0.0,49,0.00,,,0.02,WUHU216HW,2013-03-22 22:04:00,
2013-03-22 17:09:00,39.2,22.6,30.33,North,0,0.0,0.0,51,0.00,,,0.02,WUHU216HW,2013-03-22 22:09:00,
2013-03-22 17:14:00,38.9,22.2,30.33,North,0,0.0,0.0,51,0.00,,,0.02,WUHU216HW,2013-03-22 22:14:00,
2013-03-22 17:19:00,38.7,22.1,30.33,North,0,0.0,0.0,51,0.00,,,0.02,WUHU216HW,2013-03-22 22:19:00,
2013-03-22 17:24:00,38.9,22.2,30.33,North,0,0.0,0.0,51,0.00,,,0.02,WUHU216HW,2013-03-22 22:24:00,
2013-03-22 17:29:00,39.1,22.0,30.34,North,0,0.0,0.0,50,0.00,,,0.02,WUHU216HW,2013-03-22 22:29:00,
2013-03-22 17:34:00,38.9,22.2,30.34,North,0,0.0,0.0,51,0.00,,,0.02,WUHU216HW,2013-03-22 22:34:00,
2013-03-22 17:39:00,38.9,22.7,30.34,North,0,0.0,0.0,52,0.00,,,0.02,WUHU216HW,2013-03-22 22:39:00,
2013-03-22 17:44:00,38.7,21.2,30.34,North,0,0.0,0.0,49,0.00,,,0.02,WUHU216HW,2013-03-22 22:44:00,
2013-03-22 17:49:00,38.5,22.0,30.34,North,0,0.0,0.0,51,0.00,,,0.02,WUHU216HW,2013-03-22 22:49:00,
2013-03-22 17:54:00,38.5,21.0,30.34,North,0,0.0,0.0,49,0.00,,,0.02,WUHU216HW,2013-03-22 22:54:00,
2013-03-22 17:59:00,38.3,21.3,30.33,North,0,0.0,0.0,50,0.00,,,0.02,WUHU216HW,2013-03-22 22:59:00,
2013-03-22 18:04:00,38.3,21.8,30.33,North,0,0.0,0.0,51,0.00,,,0.02,WUHU216HW,2013-03-22 23:04:00,
2013-03-22 18:09:00,38.0,21.0,30.33,North,0,0.0,0.0,50,0.00,,,0.02,WUHU216HW,2013-03-22 23:09:00,
2013-03-22 18:14:00,37.8,20.9,30.33,North,0,0.0,0.0,50,0.00,,,0.02,WUHU216HW,2013-03-22 23:14:00,
2013-03-22 18:19:00,37.6,21.2,30.33,North,0,0.0,0.0,51,0.00,,,0.02,WUHU216HW,2013-03-22 23:19:00,
2013-03-22 18:24:00,37.4,21.4,30.33,North,0,0.0,0.0,52,0.00,,,0.02,WUHU216HW,2013-03-22 23:24:00,
2013-03-22 18:29:00,37.4,21.4,30.33,North,0,0.0,0.0,52,0.00,,,0.02,WUHU216HW,2013-03-22 23:29:00,
2013-03-22 18:34:00,37.3,21.7,30.33,North,0,0.0,0.0,53,0.00,,,0.02,WUHU216HW,2013-03-22 23:34:00,
2013-03-22 18:39:00,37.3,21.7,30.33,North,0,0.0,0.0,53,0.00,,,0.02,WUHU216HW,2013-03-22 23:39:00,
2013-03-22 18:44:00,37.1,22.0,30.33,North,0,0.0,0.0,54,0.00,,,0.02,WUHU216HW,2013-03-22 23:44:00,
2013-03-22 18:49:00,36.9,21.8,30.34,North,0,0.0,0.0,54,0.00,,,0.02,WUHU216HW,2013-03-22 23:49:00,
2013-03-22 18:54:00,36.5,21.4,30.34,North,0,0.0,0.0,54,0.00,,,0.02,WUHU216HW,2013-03-22 23:54:00,
2013-03-22 18:59:00,36.4,21.7,30.34,North,0,0.0,0.0,55,0.00,,,0.02,WUHU216HW,2013-03-22 23:59:00,
2013-03-22 19:04:00,36.0,21.4,30.34,North,0,0.0,0.0,55,0.00,,,0.02,WUHU216HW,2013-03-23 00:04:00,
2013-03-22 19:09:00,35.8,21.3,30.34,North,0,0.0,0.0,55,0.00,,,0.02,WUHU216HW,2013-03-23 00:09:00,
2013-03-22 19:14:00,35.6,21.5,30.34,North,0,0.0,0.0,56,0.00,,,0.02,WUHU216HW,2013-03-23 00:14:00,
2013-03-22 19:19:00,35.3,21.2,30.34,North,0,0.0,0.0,56,0.00,,,0.02,WUHU216HW,2013-03-23 00:19:00,
2013-03-22 19:24:00,34.9,21.3,30.34,North,0,0.0,0.0,57,0.00,,,0.02,WUHU216HW,2013-03-23 00:24:00,
2013-03-22 19:29:00,34.7,20.6,30.34,North,0,0.0,0.0,56,0.00,,,0.02,WUHU216HW,2013-03-23 00:29:00,
2013-03-22 19:34:00,34.6,20.4,30.34,North,0,0.0,0.0,56,0.00,,,0.02,WUHU216HW,2013-03-23 00:34:00,
2013-03-22 19:39:00,34.2,20.5,30.34,North,0,0.0,0.0,57,0.00,,,0.02,WUHU216HW,2013-03-23 00:39:00,
2013-03-22 19:44:00,34.2,20.5,30.34,North,0,0.0,0.0,57,0.00,,,0.02,WUHU216HW,2013-03-23 00:44:00,
2013-03-22 19:49:00,33.8,20.2,30.35,North,0,0.0,0.0,57,0.00,,,0.02,WUHU216HW,2013-03-23 00:49:00,
2013-03-22 19:54:00,33.8,20.5,30.35,North,0,0.0,0.0,58,0.00,,,0.02,WUHU216HW,2013-03-23 00:54:00,
2013-03-22 19:59:00,33.8,20.5,30.35,North,0,0.0,0.0,58,0.00,,,0.02,WUHU216HW,2013-03-23 00:59:00,
2013-03-22 20:04:00,33.8,20.5,30.35,North,0,0.0,0.0,58,0.00,,,0.02,WUHU216HW,2013-03-23 01:04:00,
2013-03-22 20:09:00,34.0,20.7,30.36,North,0,0.0,0.0,58,0.00,,,0.02,WUHU216HW,2013-03-23 01:09:00,
2013-03-22 20:14:00,33.8,21.0,30.36,North,0,0.0,0.0,59,0.00,,,0.02,WUHU216HW,2013-03-23 01:14:00,
2013-03-22 20:19:00,33.8,21.0,30.36,North,0,0.0,0.0,59,0.00,,,0.02,WUHU216HW,2013-03-23 01:19:00,
2013-03-22 20:24:00,33.8,21.0,30.36,North,0,0.0,0.0,59,0.00,,,0.02,WUHU216HW,2013-03-23 01:24:00,
2013-03-22 20:29:00,33.8,21.4,30.36,North,0,0.0,0.0,60,0.00,,,0.02,WUHU216HW,2013-03-23 01:29:00,
2013-03-22 20:34:00,33.8,21.4,30.36,North,0,0.0,0.0,60,0.00,,,0.02,WUHU216HW,2013-03-23 01:34:00,
2013-03-22 20:39:00,33.8,21.4,30.37,North,0,0.0,0.0,60,0.00,,,0.02,WUHU216HW,2013-03-23 01:39:00,
2013-03-22 20:44:00,33.8,21.4,30.37,North,0,0.0,0.0,60,0.00,,,0.02,WUHU216HW,2013-03-23 01:44:00,
2013-03-22 20:49:00,33.8,21.4,30.37,North,0,0.0,0.0,60,0.00,,,0.02,WUHU216HW,2013-03-23 01:49:00,
2013-03-22 20:54:00,33.8,21.4,30.37,North,0,0.0,0.0,60,0.00,,,0.02,WUHU216HW,2013-03-23 01:54:00,
2013-03-22 20:59:00,33.8,21.4,30.37,North,0,0.0,0.0,60,0.00,,,0.02,WUHU216HW,2013-03-23 01:59:00,
2013-03-22 21:04:00,33.8,21.4,30.37,North,0,0.0,0.0,60,0.00,,,0.02,WUHU216HW,2013-03-23 02:04:00,
2013-03-22 21:09:00,33.8,21.4,30.37,North,0,0.0,0.0,60,0.00,,,0.02,WUHU216HW,2013-03-23 02:09:00,
2013-03-22 21:14:00,33.7,21.2,30.37,North,0,0.0,0.0,60,0.00,,,0.02,WUHU216HW,2013-03-23 02:14:00,
2013-03-22 21:19:00,33.5,21.1,30.37,North,0,0.0,0.0,60,0.00,,,0.02,WUHU216HW,2013-03-23 02:19:00,
2013-03-22 21:24:00,33.1,20.8,30.37,North,0,0.0,0.0,60,0.00,,,0.02,WUHU216HW,2013-03-23 02:24:00,
2013-03-22 21:29:00,32.9,20.6,30.37,North,0,0.0,0.0,60,0.00,,,0.02,WUHU216HW,2013-03-23 02:29:00,
2013-03-22 21:34:00,32.8,20.8,30.37,North,0,0.0,0.0,61,0.00,,,0.02,WUHU216HW,2013-03-23 02:34:00,
2013-03-22 21:39:00,32.2,20.7,30.37,North,0,0.0,0.0,62,0.00,,,0.02,WUHU216HW,2013-03-23 02:39:00,
2013-03-22 21:44:00,32.0,20.9,30.37,North,0,0.0,0.0,63,0.00,,,0.02,WUHU216HW,2013-03-23 02:44:00,
2013-03-22 21:49:00,31.7,20.9,30.37,North,0,0.0,0.0,64,0.00,,,0.02,WUHU216HW,2013-03-23 02:49:00,
2013-03-22 21:54:00,31.3,20.9,30.37,North,0,0.0,0.0,65,0.00,,,0.02,WUHU216HW,2013-03-23 02:54:00,
2013-03-22 21:59:00,31.3,20.9,30.37,North,0,0.0,0.0,65,0.00,,,0.02,WUHU216HW,2013-03-23 02:59:00,
2013-03-22 22:04:00,31.1,21.1,30.37,North,0,0.0,0.0,66,0.00,,,0.02,WUHU216HW,2013-03-23 03:04:00,
2013-03-22 22:09:00,31.1,21.1,30.37,North,0,0.0,0.0,66,0.00,,,0.02,WUHU216HW,2013-03-23 03:09:00,
2013-03-22 22:14:00,31.1,21.1,30.37,North,0,0.0,0.0,66,0.00,,,0.02,WUHU216HW,2013-03-23 03:14:00,
2013-03-22 22:19:00,31.1,21.1,30.37,North,0,0.0,0.0,66,0.00,,,0.02,WUHU216HW,2013-03-23 03:19:00,
2013-03-22 22:24:00,31.1,21.1,30.37,North,0,0.0,0.0,66,0.00,,,0.02,WUHU216HW,2013-03-23 03:24:00,
2013-03-22 22:29:00,31.1,21.1,30.38,North,0,0.0,0.0,66,0.00,,,0.02,WUHU216HW,2013-03-23 03:29:00,
2013-03-22 22:34:00,31.0,20.9,30.37,North,0,0.0,0.0,66,0.00,,,0.02,WUHU216HW,2013-03-23 03:34:00,
2013-03-22 22:39:00,31.0,20.9,30.38,North,0,0.0,0.0,66,0.00,,,0.02,WUHU216HW,2013-03-23 03:39:00,
2013-03-22 22:44:00,31.0,20.9,30.38,North,0,0.0,0.0,66,0.00,,,0.02,WUHU216HW,2013-03-23 03:44:00,
2013-03-22 22:49:00,31.0,20.9,30.38,North,0,0.0,0.0,66,0.00,,,0.02,WUHU216HW,2013-03-23 03:49:00,
2013-03-22 22:54:00,30.8,20.7,30.38,North,0,0.0,0.0,66,0.00,,,0.02,WUHU216HW,2013-03-23 03:54:00,
2013-03-22 22:59:00,30.8,20.7,30.38,North,0,0.0,0.0,66,0.00,,,0.02,WUHU216HW,2013-03-23 03:59:00,
2013-03-22 23:00:00,30.8,20.7,30.38,North,0,0.0,0.0,66,0.00,,,0.02,WUHU216HW,2013-03-23 04:00:00,
2013-03-22 23:05:00,30.6,20.5,30.38,North,0,0.0,0.0,66,0.00,,,0.02,WUHU216HW,2013-03-23 04:05:00,
2013-03-22 23:10:00,30.6,20.9,30.38,North,0,0.0,0.0,67,0.00,,,0.02,WUHU216HW,2013-03-23 04:10:00,
2013-03-22 23:15:00,30.4,20.7,30.38,North,0,0.0,0.0,67,0.00,,,0.02,WUHU216HW,2013-03-23 04:15:00,
2013-03-22 23:20:00,30.4,20.7,30.38,North,0,0.0,0.0,67,0.00,,,0.02,WUHU216HW,2013-03-23 04:20:00,
2013-03-22 23:25:00,30.2,20.9,30.38,North,0,0.0,0.0,68,0.00,,,0.02,WUHU216HW,2013-03-23 04:25:00,
2013-03-22 23:30:00,29.9,20.5,30.38,North,0,0.0,0.0,68,0.00,,,0.02,WUHU216HW,2013-03-23 04:30:00,
2013-03-22 23:35:00,29.9,20.5,30.38,North,0,0.0,0.0,68,0.00,,,0.02,WUHU216HW,2013-03-23 04:35:00,
2013-03-22 23:40:00,29.9,20.5,30.38,North,0,0.0,0.0,68,0.00,,,0.02,WUHU216HW,2013-03-23 04:40:00,
2013-03-22 23:45:00,29.7,20.4,30.38,North,0,0.0,0.0,68,0.00,,,0.02,WUHU216HW,2013-03-23 04:45:00,
2013-03-22 23:50:00,29.5,20.3,30.38,North,0,0.0,0.0,68,0.00,,,0.02,WUHU216HW,2013-03-23 04:50:00,
2013-03-22 23:55:00,29.3,20.1,30.38,North,0,0.0,0.0,68,0.00,,,0.02,WUHU216HW,2013-03-23 04:55:00,